Ten Mile, TN (37880)

12:43 AM EDT on July 06, 2015 (GMT -0400)
Blue Springs RD | | Change Station
CLOSE
Current Station
Personal Weather Station
Location: Philadelphia, TN
Elevation: 1001 ft
Nearby Weather Stations

Elev 1001 ft 35.68 °N, 84.61 °W | Updated 9 minutes ago

Mostly Cloudy
Mostly Cloudy
66.4 °F
Feels Like 66.4 °F
N
0.0
Wind Variable Wind from NNW

Today
High -- | Low -- °F
--% Chance of Precip.
Yesterday
High -- | Low -- °F
Precip. -- in
6:28 AM 8:57 PM
Waning Gibbous, 79% visible
Pressure 30.11 in
Visibility 4.0 miles
Clouds Clear
Dew Point 66 °F
Humidity 99%
Rainfall 0.00 in
Snow Depth Not available.
UV 0 out of 12
Pollen .50 out of 12
Air Quality Not available.
Flu Activity Not available.
METAR KCSV 060353Z AUTO 23003KT 4SM BR CLR 21/18 A3016 RMK AO2 SLP195 T02060183

More Conditions Fewer Conditions

Pressure 30.11 in
Visibility 4.0 miles
Clouds Clear
Dew Point 66 °F
Humidity 99%
Rainfall 0.00 in
Snow Depth Not available.
UV 0 out of 12
Pollen .50 out of 12
Air Quality Not available.
Flu Activity Not available.
METAR KCSV 060353Z AUTO 23003KT 4SM BR CLR 21/18 A3016 RMK AO2 SLP195 T02060183

More Conditions Fewer Conditions

10-Day Weather Forecast

×

Almanac

Astronomy

Jul. 06, 2015 Rise Set
Actual Time
Civil Twilight
Nautical Twilight
Astronomical Twilight
Moon
Length of Visible Light
Length of Day
Tomorrow will be .
, % of the Moon is Illuminated

Today's Extremes

State Highs State Lows

Community

WunderPhotos

Upload Photos

1,835,487 photos uploaded!

WunderBlogs® & News

Nearby

Air Quality

  Air Quality AQ Index Pollutant
Not available.

Snow Depth

Station Depth Elevation

Earthquake Activity

City Distance Mag. Time & Date
Minimum magnitude displayed is 2.5.

Coastal Water Temperatures

Place Temperature

Stations

Nearby Weather Stations

Station Location Temp. Windchill Dew Point Humidity Wind Precip. Elev Updated Type